createdAt,value
2022-10-13T00:00:42.958Z,88.38
2022-10-13T00:02:45.380Z,88.88
2022-10-13T00:04:47.836Z,83.70
2022-10-13T00:06:50.255Z,84.72
2022-10-13T00:08:52.946Z,80.65
2022-10-13T00:10:55.465Z,83.18
2022-10-13T00:12:57.876Z,76.90
2022-10-13T00:15:00.281Z,83.40
2022-10-13T00:17:02.747Z,87.95
2022-10-13T00:19:05.079Z,81.35
2022-10-13T00:21:12.349Z,88.38
2022-10-13T00:23:15.551Z,86.63
2022-10-13T00:25:18.201Z,81.35
2022-10-13T00:27:21.254Z,81.13
2022-10-13T00:29:23.803Z,81.47
2022-10-13T00:31:32.007Z,83.22
2022-10-13T00:33:34.264Z,73.47
2022-10-13T00:37:43.304Z,71.05
2022-10-13T00:39:45.656Z,79.57
2022-10-13T00:41:48.112Z,77.60
2022-10-13T00:44:06.592Z,73.10
2022-10-13T00:46:08.970Z,81.75
2022-10-13T00:48:11.385Z,76.95
2022-10-13T00:50:21.824Z,80.45
2022-10-13T00:52:26.598Z,75.43
2022-10-13T00:54:30.190Z,71.60
2022-10-13T00:56:32.768Z,69.50
2022-10-13T00:58:36.984Z,73.45
2022-10-13T01:00:39.368Z,71.90
2022-10-13T01:02:41.729Z,69.47
2022-10-13T01:04:47.432Z,72.15
2022-10-13T01:06:50.513Z,67.07
2022-10-13T01:08:52.893Z,65.32
2022-10-13T01:11:18.155Z,69.15
2022-10-13T01:13:23.276Z,63.25
2022-10-13T01:15:32.446Z,72.13
2022-10-13T01:17:55.250Z,67.30
2022-10-13T01:20:34.746Z,65.95
2022-10-13T01:22:54.102Z,70.15
2022-10-13T01:24:59.148Z,66.78
2022-10-13T01:27:35.206Z,73.38
2022-10-13T01:30:10.639Z,69.82
2022-10-13T01:32:24.273Z,63.15
2022-10-13T01:34:51.767Z,68.55
2022-10-13T01:37:11.478Z,59.72
2022-10-13T01:39:40.959Z,57.17
2022-10-13T01:41:49.610Z,62.13
2022-10-13T01:44:33.294Z,52.92
2022-10-13T01:46:38.119Z,49.15
2022-10-13T01:48:43.250Z,58.83
2022-10-13T01:50:47.401Z,49.70
2022-10-13T01:52:51.430Z,46.88
2022-10-13T01:54:54.894Z,45.42
2022-10-13T01:56:57.947Z,52.25
2022-10-13T01:59:05.166Z,47.10
2022-10-13T02:01:15.846Z,49.67
2022-10-13T02:04:05.724Z,41.63
2022-10-13T02:06:39.481Z,43.78
2022-10-13T02:09:12.431Z,48.53
2022-10-13T02:13:20.213Z,45.33
2022-10-13T02:15:29.235Z,54.38
2022-10-13T02:17:32.316Z,50.25
2022-10-13T02:19:37.433Z,55.83
2022-10-13T02:21:39.968Z,54.28
2022-10-13T02:23:43.921Z,50.63
2022-10-13T02:25:47.950Z,58.45
2022-10-13T02:27:50.765Z,53.15
2022-10-13T02:29:56.050Z,67.75
2022-10-13T02:31:58.431Z,59.22
2022-10-13T02:34:00.757Z,60.35
2022-10-13T02:36:03.435Z,54.88
2022-10-13T02:38:06.200Z,61.20
2022-10-13T02:40:09.232Z,66.93
2022-10-13T02:42:11.752Z,62.72
2022-10-13T02:44:14.085Z,58.75
2022-10-13T02:46:16.440Z,67.90
2022-10-13T02:48:18.769Z,64.95
2022-10-13T02:50:21.189Z,58.20
2022-10-13T02:52:23.799Z,56.28
2022-10-13T02:54:26.330Z,61.40
2022-10-13T02:56:28.640Z,61.92
2022-10-13T02:58:30.959Z,64.53
2022-10-13T03:00:33.337Z,59.17
2022-10-13T03:02:35.745Z,66.03
2022-10-13T03:04:38.072Z,60.92
2022-10-13T03:06:40.608Z,67.78
2022-10-13T03:08:42.981Z,61.78
2022-10-13T03:10:45.304Z,69.32
2022-10-13T03:12:47.707Z,55.05
2022-10-13T03:14:50.121Z,58.13
2022-10-13T03:16:52.900Z,58.97
2022-10-13T03:18:55.213Z,58.63
2022-10-13T03:21:03.221Z,72.72
2022-10-13T03:23:07.217Z,62.35
2022-10-13T03:25:10.043Z,68.32
2022-10-13T03:27:12.530Z,67.57
2022-10-13T03:29:16.402Z,65.13
2022-10-13T03:31:19.823Z,63.03
2022-10-13T03:33:22.349Z,67.93
2022-10-13T03:35:24.862Z,64.88
2022-10-13T03:37:30.265Z,65.38
2022-10-13T03:39:32.507Z,64.40
2022-10-13T03:43:37.593Z,74.50
2022-10-13T03:45:39.835Z,72.85
2022-10-13T03:49:44.523Z,73.22
2022-10-13T03:51:47.268Z,70.53
2022-10-13T03:53:51.321Z,66.97
2022-10-13T03:55:56.216Z,57.88
2022-10-13T03:57:58.924Z,59.70
2022-10-13T04:00:01.996Z,68.10
2022-10-13T04:02:04.948Z,59.03
2022-10-13T04:04:09.669Z,53.55
2022-10-13T04:06:12.668Z,54.20
2022-10-13T04:08:16.417Z,56.33
2022-10-13T04:10:19.467Z,64.72
2022-10-13T04:12:22.584Z,57.47
2022-10-13T04:14:27.217Z,59.63
2022-10-13T04:16:31.651Z,54.28
2022-10-13T04:18:35.129Z,57.22
2022-10-13T04:20:39.911Z,54.20
2022-10-13T04:22:42.467Z,53.22
2022-10-13T04:24:45.328Z,58.47
2022-10-13T04:26:48.303Z,53.53
2022-10-13T04:28:52.692Z,53.83
2022-10-13T04:30:55.278Z,56.00
2022-10-13T04:32:57.958Z,66.45
2022-10-13T04:35:00.778Z,55.90
2022-10-13T04:37:03.677Z,50.53
2022-10-13T04:39:06.778Z,56.28
2022-10-13T04:41:10.668Z,63.85
2022-10-13T04:43:13.268Z,56.05
2022-10-13T04:45:16.417Z,55.60
2022-10-13T04:47:18.967Z,54.58
2022-10-13T04:49:21.911Z,53.83
2022-10-13T04:51:27.768Z,54.78
2022-10-13T04:53:31.207Z,48.83
2022-10-13T04:55:38.418Z,50.35
2022-10-13T04:57:44.029Z,49.00
2022-10-13T04:59:49.100Z,63.05
2022-10-13T05:01:52.759Z,65.35
2022-10-13T05:03:58.828Z,59.10
2022-10-13T05:06:02.277Z,56.95
2022-10-13T05:08:05.901Z,56.80
2022-10-13T05:10:09.507Z,52.45
2022-10-13T05:12:12.420Z,51.47
2022-10-13T05:14:16.098Z,70.38
2022-10-13T05:16:21.440Z,55.97
2022-10-13T05:18:25.288Z,60.75
2022-10-13T05:20:28.298Z,58.20
2022-10-13T05:22:31.247Z,55.63
2022-10-13T05:24:37.526Z,66.75
2022-10-13T05:26:40.808Z,52.67
2022-10-13T05:28:44.621Z,51.30
2022-10-13T05:30:47.288Z,53.55
2022-10-13T05:32:53.726Z,71.07
2022-10-13T05:34:57.097Z,70.93
2022-10-13T05:37:01.407Z,56.40
2022-10-13T05:39:08.639Z,51.42
2022-10-13T05:41:13.387Z,54.50
2022-10-13T05:43:16.128Z,65.10
2022-10-13T05:45:20.138Z,65.55
2022-10-13T05:47:27.569Z,52.20
2022-10-13T05:49:30.457Z,56.45
2022-10-13T05:51:43.318Z,50.15
2022-10-13T05:53:57.533Z,58.72
2022-10-13T05:56:07.437Z,57.47
2022-10-13T05:58:10.368Z,61.83
2022-10-13T06:00:16.878Z,61.90
2022-10-13T06:02:22.450Z,69.13
2022-10-13T06:04:32.477Z,65.72
2022-10-13T06:06:35.028Z,68.00
2022-10-13T06:08:39.414Z,68.85
2022-10-13T06:10:43.277Z,63.72
2022-10-13T06:12:45.827Z,56.42
2022-10-13T06:14:48.957Z,49.92
2022-10-13T06:16:51.397Z,43.92
2022-10-13T06:18:54.137Z,55.17
2022-10-13T06:20:56.490Z,45.10
2022-10-13T06:22:59.431Z,48.15
2022-10-13T06:25:02.151Z,44.15
2022-10-13T06:27:05.148Z,47.60
2022-10-13T06:29:08.951Z,46.63
2022-10-13T06:31:11.597Z,47.55
2022-10-13T06:33:14.340Z,50.67
2022-10-13T06:35:17.197Z,48.63
2022-10-13T06:37:24.692Z,52.63
2022-10-13T06:39:29.607Z,50.38
2022-10-13T06:41:32.311Z,44.67
2022-10-13T06:43:40.224Z,49.20
2022-10-13T06:45:43.497Z,47.58
2022-10-13T06:47:46.857Z,49.90
2022-10-13T06:49:49.539Z,36.20
2022-10-13T06:51:52.247Z,43.60
2022-10-13T06:53:57.237Z,49.22
2022-10-13T06:56:01.097Z,40.78
2022-10-13T06:58:03.653Z,38.75
2022-10-13T07:00:07.427Z,41.58
2022-10-13T07:02:11.097Z,41.40
2022-10-13T07:04:14.567Z,36.80
2022-10-13T07:06:17.699Z,40.63
2022-10-13T07:08:20.447Z,35.28
2022-10-13T07:10:23.095Z,35.67
2022-10-13T07:12:25.792Z,36.38
2022-10-13T07:14:28.590Z,38.85
2022-10-13T07:16:32.128Z,33.97
2022-10-13T07:18:34.788Z,36.92
2022-10-13T07:20:37.593Z,40.92
2022-10-13T07:22:40.649Z,35.92
2022-10-13T07:24:43.757Z,33.80
2022-10-13T07:26:46.348Z,32.70
2022-10-13T07:28:49.188Z,30.17
2022-10-13T07:30:52.438Z,30.92
2022-10-13T07:32:55.059Z,35.03
2022-10-13T07:34:57.547Z,34.38
2022-10-13T07:37:00.117Z,33.10
2022-10-13T07:39:04.707Z,35.55
2022-10-13T07:41:09.989Z,26.90
2022-10-13T07:43:13.247Z,32.92
2022-10-13T07:45:17.797Z,25.42
2022-10-13T07:47:20.679Z,34.22
2022-10-13T07:49:23.618Z,34.03
2022-10-13T07:51:26.647Z,34.00
2022-10-13T07:53:29.440Z,31.65
2022-10-13T07:55:32.188Z,32.97
2022-10-13T07:57:35.547Z,34.17
2022-10-13T07:59:38.047Z,31.70
2022-10-13T08:01:42.227Z,34.25
2022-10-13T08:03:49.097Z,32.17
2022-10-13T08:05:53.310Z,39.08
2022-10-13T08:07:58.352Z,34.00
2022-10-13T08:10:01.418Z,33.53
2022-10-13T08:12:04.239Z,33.20
2022-10-13T08:14:07.178Z,24.27
2022-10-13T08:16:11.147Z,32.47
2022-10-13T08:18:15.356Z,32.83
2022-10-13T08:20:18.004Z,30.33
2022-10-13T08:22:24.702Z,23.02
2022-10-13T08:24:30.528Z,29.67
2022-10-13T08:26:33.467Z,20.77
2022-10-13T08:28:36.113Z,21.60
2022-10-13T08:30:39.132Z,27.23
2022-10-13T08:32:42.617Z,23.63
2022-10-13T08:34:45.068Z,21.17
2022-10-13T08:36:48.197Z,23.55
2022-10-13T08:38:51.007Z,25.38
2022-10-13T08:40:54.098Z,28.80
2022-10-13T08:43:00.337Z,21.98
2022-10-13T08:45:36.294Z,20.50
2022-10-13T08:47:45.558Z,21.00
2022-10-13T08:49:48.771Z,17.60
2022-10-13T08:51:51.687Z,22.30
2022-10-13T08:53:54.537Z,15.20
2022-10-13T08:56:05.966Z,17.80
2022-10-13T08:58:36.527Z,17.05
2022-10-13T09:00:39.807Z,21.25
2022-10-13T09:02:45.827Z,27.38
2022-10-13T09:04:51.478Z,22.65
2022-10-13T09:07:15.587Z,25.20
2022-10-13T09:09:18.387Z,21.40
2022-10-13T09:11:22.818Z,20.88
2022-10-13T09:13:27.759Z,25.08
2022-10-13T09:15:30.807Z,25.23
2022-10-13T09:17:35.308Z,24.55
2022-10-13T09:19:38.327Z,23.33
2022-10-13T09:21:41.507Z,23.25
2022-10-13T09:23:44.457Z,19.77
2022-10-13T09:25:52.467Z,17.65
2022-10-13T09:27:59.039Z,24.58
2022-10-13T09:30:34.576Z,22.83
2022-10-13T09:32:37.196Z,28.42
2022-10-13T09:34:40.397Z,29.45
2022-10-13T09:37:06.671Z,31.38
2022-10-13T09:39:16.462Z,19.80
2022-10-13T09:41:22.757Z,24.85
2022-10-13T09:43:33.151Z,310.67
2022-10-13T09:45:36.007Z,1999.90
2022-10-13T09:47:39.158Z,1864.03
2022-10-13T09:49:44.588Z,755.03
2022-10-13T09:51:48.959Z,37.00
2022-10-13T09:53:52.048Z,16.02
2022-10-13T09:56:23.077Z,31.90
2022-10-13T09:58:36.010Z,18.48
2022-10-13T10:00:39.278Z,25.83
2022-10-13T10:02:59.707Z,27.10
2022-10-13T10:05:08.114Z,23.38
2022-10-13T10:07:13.439Z,114.15
2022-10-13T10:09:42.287Z,19.38
2022-10-13T10:11:47.316Z,17.55
2022-10-13T10:13:50.056Z,15.15
2022-10-13T10:16:20.107Z,18.90
2022-10-13T10:18:31.647Z,16.23
2022-10-13T10:20:56.957Z,18.67
2022-10-13T10:22:59.618Z,20.73
2022-10-13T10:25:22.486Z,17.00
2022-10-13T10:27:32.308Z,17.42
2022-10-13T10:29:37.667Z,19.95
2022-10-13T10:31:49.348Z,23.75
2022-10-13T10:33:59.696Z,18.15
2022-10-13T10:36:23.067Z,23.48
2022-10-13T10:38:37.187Z,16.45
2022-10-13T10:40:50.539Z,15.85
2022-10-13T10:43:21.355Z,19.20
2022-10-13T10:45:36.427Z,40.95
2022-10-13T10:47:43.767Z,28.70
2022-10-13T10:49:47.099Z,20.98
2022-10-13T10:51:50.708Z,15.10
2022-10-13T10:54:14.307Z,13.65
2022-10-13T10:56:38.246Z,18.52
2022-10-13T10:59:12.827Z,17.52
2022-10-13T11:01:23.150Z,19.08
2022-10-13T11:04:00.847Z,15.45
2022-10-13T11:06:18.417Z,15.65
2022-10-13T11:08:39.088Z,23.40
2022-10-13T11:10:41.638Z,15.48
2022-10-13T11:12:53.175Z,18.98
2022-10-13T11:14:55.756Z,24.58
2022-10-13T11:17:04.698Z,21.20
2022-10-13T11:19:31.659Z,22.08
2022-10-13T11:21:56.627Z,18.50
2022-10-13T11:24:02.031Z,27.45
2022-10-13T11:26:44.593Z,16.15
2022-10-13T11:28:48.872Z,17.43
2022-10-13T11:30:58.070Z,18.33
2022-10-13T11:33:12.499Z,12.52
2022-10-13T11:35:30.608Z,21.77
2022-10-13T11:38:12.623Z,22.58
2022-10-13T11:40:38.558Z,19.23
2022-10-13T11:42:59.463Z,27.13
2022-10-13T11:45:20.873Z,22.23
2022-10-13T11:47:41.897Z,13.88
2022-10-13T12:13:48.864Z,17.35
2022-10-13T12:16:07.314Z,22.63
2022-10-13T12:18:28.984Z,20.70
2022-10-13T12:20:33.684Z,14.35
2022-10-13T12:22:40.103Z,21.58
2022-10-13T12:24:43.156Z,24.40
2022-10-13T12:26:46.094Z,21.70
2022-10-13T12:29:04.183Z,14.55
2022-10-13T12:31:06.943Z,23.15
2022-10-13T12:33:29.993Z,17.23
2022-10-13T12:35:35.303Z,25.63
2022-10-13T12:37:38.447Z,18.70
2022-10-13T12:39:41.403Z,19.23
2022-10-13T12:41:46.283Z,22.73
2022-10-13T12:43:50.556Z,17.45
2022-10-13T12:45:53.261Z,16.50
2022-10-13T12:47:56.175Z,18.55
2022-10-13T12:50:30.010Z,25.98
2022-10-13T12:52:35.314Z,18.55
2022-10-13T12:54:41.053Z,20.52
2022-10-13T12:56:43.863Z,14.25
2022-10-13T12:58:46.523Z,20.13
2022-10-13T13:01:14.890Z,18.27
2022-10-13T13:03:26.613Z,15.10
2022-10-13T13:05:51.649Z,14.07
2022-10-13T13:07:54.547Z,19.15
2022-10-13T13:12:21.844Z,13.35
2022-10-13T13:14:43.922Z,12.43
2022-10-13T13:17:07.456Z,21.15
2022-10-13T13:19:23.257Z,21.58
2022-10-13T13:21:25.609Z,21.70
2022-10-13T13:25:36.253Z,35.33
2022-10-13T13:27:40.622Z,21.65
2022-10-13T13:29:43.087Z,12.98
2022-10-13T13:31:45.352Z,13.60
2022-10-13T13:33:48.687Z,22.92
2022-10-13T13:35:52.366Z,18.10
2022-10-13T13:37:55.251Z,25.88
2022-10-13T13:39:58.859Z,16.73
2022-10-13T13:42:01.319Z,11.13
2022-10-13T13:44:03.777Z,17.45
2022-10-13T13:46:07.601Z,11.05
2022-10-13T13:48:12.539Z,11.52
2022-10-13T13:50:26.682Z,21.73
2022-10-13T13:52:28.972Z,16.17
2022-10-13T13:54:31.482Z,18.35
2022-10-13T13:56:33.887Z,16.05
2022-10-13T13:58:36.727Z,20.23
2022-10-13T14:00:39.165Z,27.80
2022-10-13T14:02:43.139Z,19.67
2022-10-13T14:04:45.703Z,16.40
2022-10-13T14:06:48.020Z,15.48
2022-10-13T14:08:51.060Z,18.48
2022-10-13T14:10:53.580Z,18.42
2022-10-13T14:12:55.958Z,34.83
2022-10-13T14:14:59.063Z,23.55
2022-10-13T14:17:01.930Z,17.98
2022-10-13T14:19:04.492Z,23.08
2022-10-13T14:21:07.611Z,14.30
2022-10-13T14:23:09.863Z,25.83
2022-10-13T14:27:14.563Z,16.40
2022-10-13T14:29:17.320Z,12.43
2022-10-13T14:31:19.751Z,18.50
2022-10-13T14:33:22.524Z,24.15
2022-10-13T14:35:24.846Z,15.05
2022-10-13T14:37:32.740Z,25.20
2022-10-13T14:39:35.773Z,15.25
2022-10-13T14:41:39.288Z,24.27
2022-10-13T14:43:41.688Z,24.40
2022-10-13T14:45:44.003Z,19.98
2022-10-13T14:47:46.338Z,22.27
2022-10-13T14:49:48.638Z,27.80
2022-10-13T14:51:51.135Z,24.92
2022-10-13T14:53:53.441Z,32.00
2022-10-13T14:55:55.743Z,39.08
2022-10-13T14:57:58.093Z,23.30
2022-10-13T15:00:02.168Z,21.83
2022-10-13T15:02:04.869Z,30.88
2022-10-13T15:04:08.117Z,29.10
2022-10-13T15:06:19.813Z,20.52
2022-10-13T15:08:22.373Z,22.13
2022-10-13T15:10:24.656Z,24.55
2022-10-13T15:12:27.388Z,16.98
2022-10-13T15:14:29.776Z,25.20
2022-10-13T15:16:37.690Z,22.75
2022-10-13T15:18:39.941Z,16.83
2022-10-13T15:22:49.054Z,26.08
2022-10-13T15:24:51.428Z,22.60
2022-10-13T15:26:53.827Z,25.70
2022-10-13T15:28:56.621Z,23.17
2022-10-13T15:30:59.060Z,28.15
2022-10-13T15:33:01.547Z,19.48
2022-10-13T15:35:07.043Z,28.35
2022-10-13T15:37:09.389Z,23.08
2022-10-13T15:39:11.893Z,19.45
2022-10-13T15:41:14.398Z,26.02
2022-10-13T15:43:17.747Z,43.55
2022-10-13T15:45:20.358Z,36.22
2022-10-13T15:47:22.763Z,26.25
2022-10-13T15:49:26.102Z,42.45
2022-10-13T15:51:28.449Z,34.70
2022-10-13T15:53:31.293Z,30.27
2022-10-13T15:55:33.850Z,25.77
2022-10-13T15:57:36.814Z,17.13
2022-10-13T15:59:39.226Z,26.23
2022-10-13T16:01:41.655Z,22.10
2022-10-13T16:03:44.222Z,16.42
2022-10-13T16:05:47.461Z,22.58
2022-10-13T16:07:49.937Z,22.67
2022-10-13T16:09:52.261Z,27.77
2022-10-13T16:11:55.167Z,22.08
2022-10-13T16:13:58.185Z,31.50
2022-10-13T16:16:01.649Z,16.25
2022-10-13T16:18:05.031Z,22.00
2022-10-13T16:20:08.672Z,23.38
2022-10-13T16:22:11.052Z,23.52
2022-10-13T16:24:13.592Z,28.48
2022-10-13T16:26:18.191Z,41.53
2022-10-13T16:28:21.010Z,46.00
2022-10-13T16:30:23.513Z,29.50
2022-10-13T16:32:25.991Z,29.95
2022-10-13T16:34:28.813Z,30.42
2022-10-13T16:36:32.162Z,22.92
2022-10-13T16:38:34.975Z,26.58
2022-10-13T16:40:40.801Z,31.30
2022-10-13T16:42:43.801Z,33.80
2022-10-13T16:44:46.356Z,22.52
2022-10-13T16:46:50.151Z,24.20
2022-10-13T16:48:52.705Z,23.13
2022-10-13T16:50:55.472Z,26.20
2022-10-13T16:52:58.412Z,32.45
2022-10-13T16:55:01.704Z,28.98
2022-10-13T16:57:04.732Z,31.00
2022-10-13T16:59:08.531Z,26.35
2022-10-13T17:01:12.092Z,41.10
2022-10-13T17:03:15.181Z,44.45
2022-10-13T17:05:18.618Z,27.20
2022-10-13T17:07:22.294Z,28.50
2022-10-13T17:09:25.301Z,21.33
2022-10-13T17:11:30.581Z,26.40
2022-10-13T17:13:34.763Z,22.77
2022-10-13T17:15:37.782Z,24.58
2022-10-13T17:17:41.932Z,29.17
2022-10-13T17:19:44.745Z,26.42
2022-10-13T17:21:47.631Z,28.02
2022-10-13T17:23:51.412Z,24.77
2022-10-13T17:25:55.194Z,26.08
2022-10-13T17:27:57.953Z,28.45
2022-10-13T17:30:01.376Z,36.65
2022-10-13T17:32:05.102Z,26.35
2022-10-13T17:34:09.611Z,29.98
2022-10-13T17:36:16.411Z,29.45
2022-10-13T17:38:18.911Z,26.50
2022-10-13T17:40:21.611Z,29.63
2022-10-13T17:42:24.323Z,27.98
2022-10-13T17:44:26.764Z,27.40
2022-10-13T17:46:36.972Z,30.10
2022-10-13T17:48:41.051Z,32.30
2022-10-13T17:50:43.612Z,29.45
2022-10-13T17:52:46.301Z,21.52
2022-10-13T17:54:48.873Z,26.48
2022-10-13T17:56:52.642Z,32.88
2022-10-13T17:58:56.731Z,30.88
2022-10-13T18:01:12.876Z,21.60
2022-10-13T18:03:16.292Z,28.70
2022-10-13T18:05:19.461Z,35.58
2022-10-13T18:07:23.024Z,32.92
2022-10-13T18:09:25.804Z,35.58
2022-10-13T18:11:28.372Z,32.38
2022-10-13T18:13:31.582Z,38.40
2022-10-13T18:15:38.990Z,39.50
2022-10-13T18:17:41.751Z,50.53
2022-10-13T18:19:44.401Z,33.60
2022-10-13T18:21:47.161Z,38.30
2022-10-13T18:23:50.311Z,44.92
2022-10-13T18:25:52.874Z,47.78
2022-10-13T18:27:56.232Z,39.72
2022-10-13T18:29:59.731Z,29.88
2022-10-13T18:32:02.481Z,40.72
2022-10-13T18:34:07.952Z,43.17
2022-10-13T18:36:20.126Z,35.53
2022-10-13T18:38:24.581Z,49.10
2022-10-13T18:40:29.242Z,39.17
2022-10-13T18:42:31.822Z,42.45
2022-10-13T18:44:34.641Z,40.97
2022-10-13T18:46:38.853Z,48.85
2022-10-13T18:48:41.751Z,45.38
2022-10-13T18:50:44.362Z,48.47
2022-10-13T18:52:47.155Z,45.13
2022-10-13T18:54:51.376Z,45.10
2022-10-13T18:56:54.303Z,33.88
2022-10-13T18:58:59.671Z,49.05
2022-10-13T19:01:04.508Z,45.03
2022-10-13T19:03:07.801Z,34.38
2022-10-13T19:05:10.632Z,39.47
2022-10-13T19:07:13.278Z,50.63
2022-10-13T19:09:17.740Z,33.83
2022-10-13T19:11:22.311Z,33.80
2022-10-13T19:13:26.793Z,37.13
2022-10-13T19:15:29.692Z,31.23
2022-10-13T19:17:32.454Z,35.95
2022-10-13T19:19:35.312Z,46.08
2022-10-13T19:21:38.491Z,33.55
2022-10-13T19:23:42.702Z,37.42
2022-10-13T19:25:45.803Z,47.75
2022-10-13T19:27:48.492Z,39.72
2022-10-13T19:29:53.421Z,42.83
2022-10-13T19:31:56.423Z,41.97
2022-10-13T19:33:59.622Z,35.15
2022-10-13T19:36:03.113Z,40.83
2022-10-13T19:38:05.793Z,40.45
2022-10-13T19:40:09.372Z,50.58
2022-10-13T19:42:11.993Z,33.13
2022-10-13T19:44:17.435Z,37.85
2022-10-13T19:46:20.502Z,35.33
2022-10-13T19:48:23.713Z,40.05
2022-10-13T19:50:26.984Z,39.70
2022-10-13T19:52:30.792Z,40.45
2022-10-13T19:54:36.173Z,35.65
2022-10-13T19:56:39.581Z,39.65
2022-10-13T19:58:42.253Z,35.38
2022-10-13T20:00:46.890Z,38.90
2022-10-13T20:02:49.582Z,38.70
2022-10-13T20:04:52.613Z,36.70
2022-10-13T20:06:55.282Z,37.80
2022-10-13T20:08:59.632Z,43.20
2022-10-13T20:11:10.522Z,41.80
2022-10-13T20:13:13.712Z,42.95
2022-10-13T20:15:17.042Z,40.90
2022-10-13T20:17:19.876Z,55.95
2022-10-13T20:19:22.602Z,44.67
2022-10-13T20:21:27.443Z,46.95
2022-10-13T20:23:31.243Z,56.80
2022-10-13T20:25:39.612Z,48.33
2022-10-13T20:27:42.293Z,40.92
2022-10-13T20:29:45.451Z,50.40
2022-10-13T20:31:48.792Z,59.95
2022-10-13T20:33:59.165Z,59.28
2022-10-13T20:36:04.342Z,61.78
2022-10-13T20:38:07.202Z,49.63
2022-10-13T20:40:10.485Z,52.67
2022-10-13T20:42:14.832Z,66.32
2022-10-13T20:44:17.804Z,55.13
2022-10-13T20:46:22.321Z,49.67
2022-10-13T20:48:25.222Z,48.03
2022-10-13T20:50:28.462Z,49.88
2022-10-13T20:52:31.131Z,48.95
2022-10-13T20:54:33.673Z,41.00
2022-10-13T20:56:36.432Z,51.33
2022-10-13T20:58:40.002Z,54.78
2022-10-13T21:00:44.437Z,49.35
2022-10-13T21:02:47.973Z,39.97
2022-10-13T21:04:50.332Z,47.22
2022-10-13T21:06:53.411Z,54.40
2022-10-13T21:08:55.962Z,46.85
2022-10-13T21:11:05.763Z,42.40
2022-10-13T21:13:08.722Z,47.75
2022-10-13T21:15:11.755Z,43.90
2022-10-13T21:17:14.624Z,52.08
2022-10-13T21:19:17.991Z,47.47
2022-10-13T21:21:25.482Z,44.30
2022-10-13T21:23:28.452Z,49.95
2022-10-13T21:25:31.921Z,48.60
2022-10-13T21:27:34.373Z,50.92
2022-10-13T21:29:36.893Z,57.90
2022-10-13T21:31:39.514Z,54.03
2022-10-13T21:33:43.553Z,49.90
2022-10-13T21:35:46.922Z,51.40
2022-10-13T21:37:49.601Z,57.20
2022-10-13T21:39:54.092Z,57.00
2022-10-13T21:41:56.622Z,57.13
2022-10-13T21:43:59.265Z,58.10
2022-10-13T21:46:16.027Z,53.22
2022-10-13T21:48:18.564Z,60.55
2022-10-13T21:50:20.875Z,55.55
2022-10-13T21:52:23.919Z,58.88
2022-10-13T21:54:26.421Z,51.60
2022-10-13T21:56:29.319Z,52.40
2022-10-13T21:58:31.732Z,52.17
2022-10-13T22:00:34.124Z,52.45
2022-10-13T22:02:39.421Z,53.13
2022-10-13T22:04:41.930Z,50.10
2022-10-13T22:06:44.666Z,53.10
2022-10-13T22:08:49.726Z,57.55
2022-10-13T22:10:57.112Z,51.88
2022-10-13T22:12:59.710Z,49.33
2022-10-13T22:15:02.206Z,45.95
2022-10-13T22:17:05.366Z,60.00
2022-10-13T22:19:08.204Z,52.47
2022-10-13T22:21:18.009Z,51.60
2022-10-13T22:23:20.448Z,45.30
2022-10-13T22:25:22.673Z,56.40
2022-10-13T22:29:27.497Z,51.38
2022-10-13T22:31:30.977Z,55.03
2022-10-13T22:33:35.186Z,52.08
2022-10-13T22:35:37.451Z,47.13
2022-10-13T22:39:42.254Z,54.05
2022-10-13T22:41:44.846Z,55.83
2022-10-13T22:43:54.091Z,50.42
2022-10-13T22:45:56.577Z,50.67
2022-10-13T22:47:58.893Z,56.58
2022-10-13T22:50:01.686Z,47.10
2022-10-13T22:52:04.747Z,55.05
2022-10-13T22:54:07.222Z,63.28
2022-10-13T22:56:12.764Z,62.33
2022-10-13T22:58:15.264Z,54.20
2022-10-13T23:00:17.714Z,60.47
2022-10-13T23:02:20.462Z,64.18
2022-10-13T23:04:22.851Z,52.85
2022-10-13T23:06:31.793Z,53.55
2022-10-13T23:08:34.839Z,59.80
2022-10-13T23:10:37.767Z,54.80
2022-10-13T23:12:40.054Z,50.50
2022-10-13T23:14:42.402Z,52.05
2022-10-13T23:16:44.995Z,65.30
2022-10-13T23:18:47.809Z,47.55
2022-10-13T23:20:53.154Z,55.58
2022-10-13T23:22:59.117Z,57.50
2022-10-13T23:25:01.881Z,62.75
2022-10-13T23:27:04.163Z,51.95
2022-10-13T23:31:14.339Z,61.67
2022-10-13T23:33:16.637Z,65.50
2022-10-13T23:35:19.264Z,61.85
2022-10-13T23:37:21.809Z,54.40
2022-10-13T23:39:24.356Z,54.53
2022-10-13T23:45:31.479Z,59.53
2022-10-13T23:49:36.019Z,60.80
2022-10-13T23:51:38.202Z,60.65
2022-10-13T23:55:42.823Z,57.28
2022-10-13T23:59:47.632Z,61.95
